Time;durP1;ratioP1;P1;durP2;ratioP2;P2;SDS_P1;SDS_P2;PMS_P1;PMS_P2;Temp;Humidity;BMP_temperature;BMP_pressure;BME280_temperature;BME280_humidity;BME280_pressure;Samples;Min_cycle;Max_cycle;Signal;HPM_P1;HPM_P2
2022/11/23 00:00:00;;;;;;;33.83;15.10;;;3.20;96.60;;;;;;4966780;28;20107;-65
2022/11/23 00:02:26;;;;;;;32.17;13.43;;;3.30;96.50;;;;;;4963437;28;20116;-65
2022/11/23 00:04:51;;;;;;;38.80;15.43;;;3.30;96.40;;;;;;4966174;28;20056;-65
2022/11/23 00:07:17;;;;;;;41.50;16.38;;;3.30;96.30;;;;;;4969675;28;20373;-65
2022/11/23 00:09:43;;;;;;;38.15;15.60;;;3.30;96.30;;;;;;4968911;28;20395;-65
2022/11/23 00:12:09;;;;;;;33.33;15.25;;;3.30;96.50;;;;;;4966489;28;20090;-65
2022/11/23 00:14:35;;;;;;;31.27;15.52;;;3.30;96.50;;;;;;4966242;28;20121;-62
2022/11/23 00:17:00;;;;;;;35.08;14.40;;;3.30;96.40;;;;;;4964328;28;20042;-65
2022/11/23 00:19:26;;;;;;;35.25;14.57;;;3.30;96.40;;;;;;4962676;28;20042;-65
2022/11/23 00:21:52;;;;;;;35.35;14.48;;;3.30;96.40;;;;;;4962614;28;20049;-65
2022/11/23 00:24:18;;;;;;;39.70;14.82;;;3.40;96.40;;;;;;4966477;28;20704;-65
2022/11/23 00:26:43;;;;;;;41.17;16.67;;;3.40;96.30;;;;;;4969127;28;20045;-65
2022/11/23 00:29:09;;;;;;;32.45;14.10;;;3.40;96.10;;;;;;4980911;28;20035;-65
2022/11/23 00:31:35;;;;;;;37.42;16.00;;;3.40;96.20;;;;;;4964509;28;20042;-65
2022/11/23 00:34:01;;;;;;;36.22;14.35;;;3.40;96.20;;;;;;4962547;28;20041;-65
2022/11/23 00:36:27;;;;;;;35.20;13.82;;;3.40;96.10;;;;;;4962693;28;20110;-65
2022/11/23 00:38:54;;;;;;;32.58;13.85;;;3.40;96.20;;;;;;4962675;28;20139;-65
2022/11/23 00:41:22;;;;;;;28.50;13.65;;;3.50;96.10;;;;;;4961771;28;20054;-65
2022/11/23 00:43:49;;;;;;;34.67;14.73;;;3.50;96.10;;;;;;4966029;28;20030;-65
2022/11/23 00:46:16;;;;;;;30.30;14.02;;;3.50;96.10;;;;;;4980759;28;20049;-65
2022/11/23 00:48:43;;;;;;;36.53;15.68;;;3.50;96.20;;;;;;4964043;28;20118;-65
2022/11/23 00:51:11;;;;;;;35.45;15.50;;;3.50;96.20;;;;;;4961392;28;20039;-65
2022/11/23 00:53:39;;;;;;;32.13;14.38;;;3.60;96.20;;;;;;4960251;28;20045;-65
2022/11/23 00:56:05;;;;;;;35.45;14.63;;;3.60;96.20;;;;;;4962799;28;20558;-65
2022/11/23 00:58:31;;;;;;;36.20;15.93;;;3.60;96.30;;;;;;4963576;28;20084;-65
2022/11/23 01:01:03;;;;;;;33.85;14.82;;;3.70;96.20;;;;;;4977608;28;20031;-66
2022/11/23 01:03:34;;;;;;;36.83;14.50;;;3.70;96.20;;;;;;4979498;28;20038;-65
2022/11/23 01:06:27;;;;;;;32.67;14.70;;;3.80;95.90;;;;;;4963688;28;20105;-66
2022/11/23 01:08:55;;;;;;;31.55;13.25;;;3.90;95.90;;;;;;4959275;28;20072;-65
2022/11/23 01:11:23;;;;;;;34.20;14.77;;;3.90;95.90;;;;;;4964800;28;20115;-64
2022/11/23 01:13:49;;;;;;;29.33;13.25;;;3.90;95.90;;;;;;4962742;28;20031;-65
2022/11/23 01:16:17;;;;;;;31.75;14.73;;;3.90;95.90;;;;;;4962077;28;20031;-65
2022/11/23 01:18:43;;;;;;;31.48;14.38;;;3.90;95.90;;;;;;4958365;28;20550;-65
2022/11/23 01:21:09;;;;;;;35.28;14.02;;;4.00;95.90;;;;;;4962153;28;20073;-65
2022/11/23 01:23:37;;;;;;;27.02;12.27;;;4.00;95.80;;;;;;4961741;28;20037;-65
2022/11/23 01:26:08;;;;;;;35.70;14.98;;;4.00;95.80;;;;;;4963557;28;20217;-65
2022/11/23 01:28:35;;;;;;;33.70;14.85;;;4.00;95.60;;;;;;4966654;28;20386;-65
2022/11/23 01:31:07;;;;;;;28.45;13.73;;;4.10;95.70;;;;;;4962240;28;20054;-65
2022/11/23 01:33:33;;;;;;;32.30;13.85;;;4.00;95.70;;;;;;4962990;28;20183;-65
2022/11/23 01:35:59;;;;;;;25.00;12.10;;;4.10;95.80;;;;;;4976486;28;20039;-65
2022/11/23 01:38:25;;;;;;;30.80;14.30;;;4.20;95.70;;;;;;4960726;28;20586;-65
2022/11/23 01:40:51;;;;;;;30.67;14.27;;;4.20;95.60;;;;;;4961566;28;20038;-64
2022/11/23 01:43:17;;;;;;;27.08;13.02;;;4.30;95.60;;;;;;4967016;28;20046;-65
2022/11/23 01:45:55;;;;;;;32.28;14.10;;;4.30;95.60;;;;;;4965008;28;20096;-65
2022/11/23 01:48:29;;;;;;;28.83;13.10;;;4.30;95.60;;;;;;4979659;28;20510;-65
2022/11/23 01:50:59;;;;;;;31.50;14.20;;;4.40;95.30;;;;;;4960097;28;20030;-65
2022/11/23 01:53:27;;;;;;;29.30;13.68;;;4.40;95.10;;;;;;4963134;28;20470;-65
2022/11/23 01:55:55;;;;;;;32.45;14.95;;;4.40;95.10;;;;;;4960564;28;20118;-65
2022/11/23 01:58:24;;;;;;;27.45;12.43;;;4.40;95.20;;;;;;4964189;28;20235;-65
2022/11/23 02:00:50;;;;;;;25.75;12.88;;;4.30;95.20;;;;;;4965367;28;20030;-65
2022/11/23 02:03:17;;;;;;;30.48;13.02;;;4.30;95.30;;;;;;4971019;28;20049;-65
2022/11/23 02:05:46;;;;;;;33.13;15.07;;;4.40;95.20;;;;;;4964967;28;20046;-65
2022/11/23 02:08:16;;;;;;;28.55;14.43;;;4.40;95.20;;;;;;4981616;28;20037;-65
2022/11/23 02:10:43;;;;;;;30.80;13.65;;;4.40;95.00;;;;;;4963521;28;20216;-65
2022/11/23 02:13:11;;;;;;;30.55;13.75;;;4.40;94.90;;;;;;4964214;28;20034;-65
2022/11/23 02:15:38;;;;;;;26.65;13.68;;;4.30;95.00;;;;;;4963480;28;20039;-65
2022/11/23 02:18:11;;;;;;;31.13;14.27;;;4.30;95.00;;;;;;4969815;28;20050;-65
2022/11/23 02:20:37;;;;;;;26.55;13.27;;;4.30;95.10;;;;;;4965708;28;20041;-65
2022/11/23 02:23:26;;;;;;;32.92;13.20;;;4.30;95.10;;;;;;4965869;28;20058;-65
2022/11/23 02:26:04;;;;;;;29.65;13.60;;;4.30;95.10;;;;;;4963441;28;20673;-65
2022/11/23 02:28:46;;;;;;;26.45;13.13;;;4.30;95.10;;;;;;4979755;28;20033;-65
2022/11/23 02:31:12;;;;;;;29.85;13.82;;;4.30;95.30;;;;;;4961929;28;20035;-65
2022/11/23 02:33:39;;;;;;;26.75;12.32;;;4.30;95.20;;;;;;4960308;28;20034;-65
2022/11/23 02:36:28;;;;;;;25.67;12.45;;;4.30;95.20;;;;;;4966451;28;20043;-65
2022/11/23 02:38:55;;;;;;;25.45;12.65;;;4.30;95.20;;;;;;4952781;28;20039;-65
2022/11/23 02:41:21;;;;;;;28.05;11.98;;;4.30;95.20;;;;;;4981935;28;20045;-65
2022/11/23 02:43:52;;;;;;;27.20;12.25;;;4.30;95.20;;;;;;4980086;28;20039;-65
2022/11/23 02:46:17;;;;;;;26.05;12.13;;;4.30;95.30;;;;;;4956094;28;20523;-65
2022/11/23 02:48:43;;;;;;;28.52;12.48;;;4.30;95.30;;;;;;4966451;28;20030;-65
2022/11/23 02:51:09;;;;;;;30.13;13.43;;;4.30;95.40;;;;;;4964831;28;20086;-65
2022/11/23 02:53:35;;;;;;;27.25;13.07;;;4.30;95.50;;;;;;4955432;28;20039;-65
2022/11/23 02:56:00;;;;;;;30.52;12.40;;;4.30;95.40;;;;;;4967360;28;20038;-65
2022/11/23 02:58:26;;;;;;;24.88;11.57;;;4.30;95.40;;;;;;4981415;28;20038;-65
2022/11/23 03:00:52;;;;;;;24.92;11.48;;;4.40;95.50;;;;;;4979056;28;20037;-65
2022/11/23 03:03:18;;;;;;;24.80;12.07;;;4.40;95.40;;;;;;4967213;28;20041;-65
2022/11/23 03:05:44;;;;;;;31.48;12.68;;;4.40;95.10;;;;;;4959868;28;20047;-65
2022/11/23 03:08:10;;;;;;;27.55;12.55;;;4.40;95.10;;;;;;4980771;28;20030;-65
2022/11/23 03:10:37;;;;;;;22.77;12.30;;;4.40;95.10;;;;;;4962749;28;20030;-65
2022/11/23 03:13:03;;;;;;;26.95;13.50;;;4.40;95.00;;;;;;4965266;28;20037;-65
2022/11/23 03:15:33;;;;;;;24.33;13.00;;;4.50;95.10;;;;;;4964198;28;20380;-65
2022/11/23 03:18:02;;;;;;;22.50;10.95;;;4.50;95.10;;;;;;4978382;28;20499;-64
2022/11/23 03:20:29;;;;;;;28.42;12.13;;;4.50;95.00;;;;;;4984444;28;20450;-65
2022/11/23 03:22:55;;;;;;;23.30;11.65;;;4.50;94.90;;;;;;4981658;28;20034;-65
2022/11/23 03:25:22;;;;;;;23.90;11.27;;;4.40;94.90;;;;;;4981290;28;20030;-65
2022/11/23 03:27:52;;;;;;;26.88;12.20;;;4.40;95.10;;;;;;4960119;28;20049;-64
2022/11/23 03:30:18;;;;;;;24.35;11.35;;;4.40;95.10;;;;;;4961144;28;20026;-65
2022/11/23 03:32:44;;;;;;;25.27;11.50;;;4.40;95.30;;;;;;4978284;28;20038;-64
2022/11/23 03:35:09;;;;;;;25.50;12.00;;;4.40;95.10;;;;;;4977864;28;20476;-65
2022/11/23 03:37:47;;;;;;;24.30;11.50;;;4.50;95.00;;;;;;4966643;28;20035;-65
2022/11/23 03:40:14;;;;;;;21.80;10.45;;;4.50;95.00;;;;;;4965661;28;20074;-65
2022/11/23 03:42:58;;;;;;;22.83;11.15;;;4.50;95.00;;;;;;4965363;28;20545;-65
2022/11/23 03:45:24;;;;;;;25.83;10.98;;;4.50;94.90;;;;;;4979912;28;20046;-65
2022/11/23 03:47:50;;;;;;;22.15;11.18;;;4.50;95.00;;;;;;4962725;28;20040;-65
2022/11/23 03:50:17;;;;;;;23.02;11.25;;;4.50;95.10;;;;;;4960635;28;20146;-65
2022/11/23 03:52:43;;;;;;;24.05;11.32;;;4.50;95.10;;;;;;4983880;28;20125;-65
2022/11/23 03:55:11;;;;;;;22.05;11.10;;;4.50;95.10;;;;;;4983254;28;20037;-65
2022/11/23 03:57:37;;;;;;;20.35;10.23;;;4.50;95.10;;;;;;4967251;28;20034;-65
2022/11/23 04:00:07;;;;;;;17.75;9.52;;;4.40;95.20;;;;;;4980787;28;20042;-65
2022/11/23 04:02:39;;;;;;;20.52;10.57;;;4.50;95.20;;;;;;4967390;28;20083;-65
2022/11/23 04:05:09;;;;;;;21.10;10.10;;;4.50;95.00;;;;;;4962509;28;20127;-65
2022/11/23 04:07:58;;;;;;;19.48;10.48;;;4.60;94.70;;;;;;4952644;28;20051;-65
2022/11/23 04:10:25;;;;;;;21.15;10.05;;;4.60;94.70;;;;;;4982389;28;20039;-65
2022/11/23 04:13:10;;;;;;;24.10;10.77;;;4.60;94.80;;;;;;4966386;28;20038;-65
2022/11/23 04:15:36;;;;;;;24.95;10.48;;;4.60;94.90;;;;;;4962707;28;20030;-65
2022/11/23 04:18:02;;;;;;;20.92;9.38;;;4.60;94.80;;;;;;4979839;28;20039;-65
2022/11/23 04:20:28;;;;;;;21.42;10.52;;;4.60;94.90;;;;;;4979068;28;20873;-64
2022/11/23 04:22:54;;;;;;;21.77;11.07;;;4.60;94.80;;;;;;4961114;28;20034;-65
2022/11/23 04:25:20;;;;;;;21.73;9.95;;;4.60;94.60;;;;;;4978916;28;20038;-65
2022/11/23 04:27:49;;;;;;;24.70;10.90;;;4.60;94.60;;;;;;4960435;28;20119;-65
2022/11/23 04:30:15;;;;;;;22.98;10.85;;;4.60;94.60;;;;;;4964947;28;20085;-65
2022/11/23 04:32:45;;;;;;;23.33;9.75;;;4.60;94.80;;;;;;4960983;28;20629;-65
2022/11/23 04:35:12;;;;;;;19.50;9.52;;;4.40;94.80;;;;;;4963723;28;20059;-65
2022/11/23 04:37:40;;;;;;;23.92;10.20;;;4.30;95.10;;;;;;4961538;28;20116;-64
2022/11/23 04:40:07;;;;;;;26.55;11.60;;;4.40;95.20;;;;;;4961165;28;20043;-64
2022/11/23 04:42:52;;;;;;;20.33;9.40;;;4.40;95.00;;;;;;4959579;28;20518;-65
2022/11/23 04:45:18;;;;;;;21.33;10.32;;;4.40;95.00;;;;;;4977478;28;20145;-65
2022/11/23 04:47:44;;;;;;;21.05;9.82;;;4.40;95.20;;;;;;4978541;28;20046;-65
2022/11/23 04:50:12;;;;;;;20.17;10.35;;;4.30;95.30;;;;;;4963389;28;20026;-65
2022/11/23 04:52:39;;;;;;;18.08;9.32;;;4.30;95.30;;;;;;4956395;28;20027;-65
2022/11/23 04:55:11;;;;;;;23.58;10.10;;;4.20;95.40;;;;;;4960653;28;20170;-65
2022/11/23 04:57:46;;;;;;;21.90;10.88;;;4.20;95.40;;;;;;4979357;28;20046;-64
2022/11/23 05:00:13;;;;;;;21.25;9.90;;;4.10;95.50;;;;;;4978500;28;20042;-65
2022/11/23 05:02:40;;;;;;;17.58;9.57;;;4.10;95.70;;;;;;4961376;28;20538;-65
2022/11/23 05:05:25;;;;;;;21.60;10.23;;;4.10;95.70;;;;;;4960582;28;20051;-65
2022/11/23 05:07:51;;;;;;;26.20;10.80;;;4.10;95.60;;;;;;4978011;28;20041;-63
2022/11/23 05:10:19;;;;;;;21.90;10.75;;;4.20;96.00;;;;;;4977050;28;20054;-63
2022/11/23 05:12:46;;;;;;;23.63;10.70;;;4.20;95.40;;;;;;4978217;28;20033;-63
2022/11/23 05:15:13;;;;;;;20.08;10.43;;;4.30;95.30;;;;;;4976732;28;20042;-63
2022/11/23 05:17:40;;;;;;;22.90;10.48;;;4.20;95.50;;;;;;4958018;28;20030;-64
2022/11/23 05:20:12;;;;;;;18.95;9.50;;;4.20;95.40;;;;;;4977569;28;20047;-63
2022/11/23 05:22:42;;;;;;;21.00;10.38;;;4.20;95.30;;;;;;4959195;28;20038;-63
2022/11/23 05:25:13;;;;;;;22.67;9.73;;;4.30;95.30;;;;;;4974654;28;20026;-63
2022/11/23 05:27:38;;;;;;;21.02;9.85;;;4.30;95.20;;;;;;4975724;28;20569;-63
2022/11/23 05:30:05;;;;;;;18.70;8.40;;;4.20;95.00;;;;;;4981422;28;20042;-64
2022/11/23 05:32:31;;;;;;;19.80;9.38;;;4.30;94.90;;;;;;4967308;28;20022;-64
2022/11/23 05:34:59;;;;;;;20.85;11.15;;;4.20;94.90;;;;;;4963164;28;20514;-63
2022/11/23 05:37:28;;;;;;;22.02;10.07;;;4.20;94.90;;;;;;4978924;28;20069;-63
2022/11/23 05:40:00;;;;;;;19.83;9.13;;;4.10;95.20;;;;;;4976061;28;20874;-63
2022/11/23 05:42:26;;;;;;;18.70;9.45;;;4.10;95.10;;;;;;4956164;28;20035;-63
2022/11/23 05:44:55;;;;;;;17.70;8.82;;;4.10;95.30;;;;;;4978401;28;20046;-64
2022/11/23 05:47:28;;;;;;;22.60;9.95;;;4.10;95.30;;;;;;4960966;28;20034;-63
2022/11/23 05:49:54;;;;;;;24.08;10.20;;;4.10;95.50;;;;;;4961473;28;20572;-63
2022/11/23 05:52:25;;;;;;;19.20;9.27;;;4.10;95.50;;;;;;4960382;28;20031;-64
2022/11/23 05:54:51;;;;;;;22.15;10.68;;;4.10;95.50;;;;;;4963544;28;20031;-63
2022/11/23 05:57:16;;;;;;;20.75;9.48;;;4.10;95.50;;;;;;4962337;28;20407;-63
2022/11/23 05:59:44;;;;;;;19.17;9.57;;;4.10;95.40;;;;;;4978224;28;20061;-64
2022/11/23 06:02:20;;;;;;;21.27;10.25;;;4.10;95.50;;;;;;4978407;28;20034;-64
2022/11/23 06:04:49;;;;;;;21.08;9.68;;;4.10;95.50;;;;;;4961528;28;20042;-65
2022/11/23 06:07:22;;;;;;;19.02;9.00;;;4.10;95.30;;;;;;4965076;28;20118;-64
2022/11/23 06:09:57;;;;;;;18.67;9.87;;;4.00;95.20;;;;;;4963787;28;20054;-65
2022/11/23 06:12:23;;;;;;;20.70;9.30;;;4.00;95.30;;;;;;4961519;28;20142;-65
2022/11/23 06:14:49;;;;;;;19.35;9.57;;;4.00;95.40;;;;;;4962545;28;20106;-65
2022/11/23 06:17:18;;;;;;;19.15;8.95;;;4.00;95.30;;;;;;4978588;28;20042;-64
2022/11/23 06:19:47;;;;;;;23.95;9.93;;;4.00;95.20;;;;;;4951327;28;20400;-64
2022/11/23 06:22:14;;;;;;;18.15;8.77;;;4.00;95.30;;;;;;4962403;28;20038;-64
2022/11/23 06:24:51;;;;;;;19.90;9.95;;;3.90;95.30;;;;;;4962231;28;20042;-65
2022/11/23 06:27:57;;;;;;;22.27;11.25;;;3.90;95.10;;;;;;4952371;28;20046;-64
2022/11/23 06:30:29;;;;;;;21.75;9.85;;;3.80;95.30;;;;;;4958747;28;20050;-65
2022/11/23 06:33:04;;;;;;;20.48;9.90;;;3.80;95.30;;;;;;4962166;28;20038;-64
2022/11/23 06:35:33;;;;;;;24.85;10.35;;;3.80;95.20;;;;;;4979929;28;20038;-64
2022/11/23 06:37:59;;;;;;;19.85;9.38;;;3.80;95.40;;;;;;4963074;28;20035;-67
2022/11/23 06:40:25;;;;;;;20.80;10.27;;;3.70;95.40;;;;;;4976932;28;20121;-63
2022/11/23 06:42:57;;;;;;;18.40;9.80;;;3.70;95.40;;;;;;4961537;28;20494;-64
2022/11/23 06:45:31;;;;;;;22.70;9.95;;;3.70;95.60;;;;;;4978968;28;20064;-64
2022/11/23 06:48:03;;;;;;;21.48;9.27;;;3.70;95.50;;;;;;4961583;28;20046;-64
2022/11/23 06:50:32;;;;;;;20.55;9.55;;;3.60;95.60;;;;;;4961499;28;20431;-64
2022/11/23 06:52:58;;;;;;;21.65;9.55;;;3.60;95.70;;;;;;4962875;28;20053;-64
2022/11/23 06:55:39;;;;;;;24.60;9.98;;;3.70;95.70;;;;;;4963269;28;20034;-64
2022/11/23 06:58:07;;;;;;;20.95;10.20;;;3.70;95.70;;;;;;4976175;28;20031;-66
2022/11/23 07:00:33;;;;;;;16.98;8.90;;;3.70;95.60;;;;;;4962342;28;20030;-64
2022/11/23 07:03:01;;;;;;;21.00;10.18;;;3.70;95.70;;;;;;4958925;28;20081;-64
2022/11/23 07:05:30;;;;;;;28.75;10.15;;;3.70;95.60;;;;;;4974846;28;20488;-64
2022/11/23 07:07:56;;;;;;;20.23;10.05;;;3.70;95.60;;;;;;4963871;28;20121;-64
2022/11/23 07:10:26;;;;;;;19.20;9.23;;;3.80;95.40;;;;;;4962208;28;20086;-63
2022/11/23 07:13:05;;;;;;;19.65;9.23;;;3.80;95.50;;;;;;4960518;28;20029;-64
2022/11/23 07:15:32;;;;;;;20.63;10.13;;;3.70;95.50;;;;;;4962258;28;20695;-63
2022/11/23 07:17:59;;;;;;;21.75;9.63;;;3.70;95.60;;;;;;4961311;28;20041;-65
2022/11/23 07:20:25;;;;;;;21.30;10.35;;;3.80;95.60;;;;;;4962048;28;20945;-66
2022/11/23 07:23:04;;;;;;;18.77;9.73;;;3.80;95.70;;;;;;4977405;28;20073;-64
2022/11/23 07:25:32;;;;;;;22.75;11.52;;;3.80;95.80;;;;;;4958600;28;20058;-64
2022/11/23 07:28:00;;;;;;;21.88;10.27;;;3.80;95.70;;;;;;4978355;28;20039;-63
2022/11/23 07:30:27;;;;;;;23.13;11.05;;;3.80;95.90;;;;;;4962576;28;20031;-63
2022/11/23 07:32:57;;;;;;;23.13;11.70;;;3.80;95.80;;;;;;4961137;28;20035;-64
2022/11/23 07:35:23;;;;;;;21.73;11.07;;;3.90;96.10;;;;;;4977232;28;20033;-67
2022/11/23 07:37:50;;;;;;;26.77;11.38;;;3.90;95.70;;;;;;4977129;28;20345;-65
2022/11/23 07:40:16;;;;;;;25.58;11.50;;;3.90;95.70;;;;;;4976415;28;20038;-66
2022/11/23 07:42:43;;;;;;;26.05;11.68;;;4.00;95.80;;;;;;4960633;28;20826;-65
2022/11/23 07:45:10;;;;;;;24.60;11.40;;;4.10;95.80;;;;;;4962156;28;20031;-64
2022/11/23 07:47:38;;;;;;;21.63;10.80;;;4.10;95.60;;;;;;4963144;28;20065;-65
2022/11/23 07:50:06;;;;;;;18.60;9.52;;;4.20;95.60;;;;;;4961113;28;20039;-64
2022/11/23 07:52:31;;;;;;;22.13;10.40;;;4.20;95.60;;;;;;4960866;28;20039;-65
2022/11/23 07:54:59;;;;;;;20.75;9.93;;;4.20;95.60;;;;;;4961452;28;20022;-65
2022/11/23 07:57:25;;;;;;;21.33;10.02;;;4.30;95.90;;;;;;4960844;28;20289;-66
2022/11/23 07:59:51;;;;;;;24.20;11.05;;;4.40;95.60;;;;;;4960576;28;20035;-66
2022/11/23 08:02:17;;;;;;;23.48;10.35;;;4.50;95.40;;;;;;4960945;28;20090;-66
2022/11/23 08:04:43;;;;;;;23.92;11.10;;;4.50;95.20;;;;;;4960544;28;20040;-66
2022/11/23 08:07:09;;;;;;;20.73;9.18;;;4.60;95.10;;;;;;4962000;28;20038;-66
2022/11/23 08:09:35;;;;;;;21.27;9.63;;;4.60;95.10;;;;;;4963916;28;20046;-67
2022/11/23 08:12:01;;;;;;;21.77;10.10;;;4.70;95.20;;;;;;4961475;28;20027;-66
2022/11/23 08:14:27;;;;;;;17.48;9.00;;;4.80;95.20;;;;;;4961843;28;20041;-66
2022/11/23 08:16:53;;;;;;;18.67;8.68;;;4.90;95.00;;;;;;4960660;28;20027;-66
2022/11/23 08:19:19;;;;;;;18.45;9.57;;;5.00;94.90;;;;;;4961640;28;20047;-66
2022/11/23 08:21:45;;;;;;;19.92;8.85;;;5.10;94.80;;;;;;4960194;28;20452;-66
2022/11/23 08:24:11;;;;;;;16.65;9.00;;;5.30;94.70;;;;;;4959205;28;20662;-66
2022/11/23 08:26:37;;;;;;;24.40;9.52;;;5.40;94.30;;;;;;4959462;28;20043;-67
2022/11/23 08:29:03;;;;;;;19.30;9.13;;;5.50;94.30;;;;;;4961502;28;20035;-67
2022/11/23 08:31:29;;;;;;;16.67;8.93;;;5.70;94.00;;;;;;4956743;28;20399;-67
2022/11/23 08:33:55;;;;;;;15.15;7.85;;;5.80;93.70;;;;;;4959187;28;20023;-67
2022/11/23 08:36:21;;;;;;;18.50;8.75;;;6.00;93.50;;;;;;4961403;28;20026;-67
2022/11/23 08:38:50;;;;;;;19.63;8.48;;;6.20;93.60;;;;;;4962532;28;20534;-67
2022/11/23 08:41:19;;;;;;;20.38;9.45;;;6.60;92.90;;;;;;4958234;28;20031;-67
2022/11/23 08:43:49;;;;;;;19.00;8.40;;;6.90;92.10;;;;;;4961700;28;20043;-67
2022/11/23 08:46:16;;;;;;;17.17;8.35;;;7.00;91.20;;;;;;4959582;28;20151;-67
2022/11/23 08:48:42;;;;;;;17.65;8.23;;;7.00;91.30;;;;;;4960071;28;20690;-68
2022/11/23 08:51:08;;;;;;;16.13;8.38;;;6.90;91.60;;;;;;4958775;28;20066;-66
2022/11/23 08:53:35;;;;;;;16.02;8.45;;;7.10;91.60;;;;;;4960813;28;20042;-65
2022/11/23 08:56:05;;;;;;;17.48;8.30;;;7.10;91.00;;;;;;4958388;28;20035;-66
2022/11/23 08:58:31;;;;;;;16.80;8.55;;;7.40;91.20;;;;;;4962177;28;20105;-65
2022/11/23 09:00:57;;;;;;;15.73;8.55;;;8.10;89.50;;;;;;4960742;28;20042;-65
2022/11/23 09:03:23;;;;;;;15.25;8.23;;;9.10;85.10;;;;;;4962093;28;20093;-65
2022/11/23 09:05:50;;;;;;;18.98;7.63;;;9.90;81.50;;;;;;4962265;28;20034;-65
2022/11/23 09:08:16;;;;;;;15.82;8.50;;;11.10;77.60;;;;;;4975570;28;20058;-66
2022/11/23 09:10:42;;;;;;;13.85;7.57;;;12.20;70.90;;;;;;4960178;28;20030;-65
2022/11/23 09:13:08;;;;;;;19.58;9.15;;;12.60;67.10;;;;;;4961340;28;20027;-65
2022/11/23 09:15:34;;;;;;;14.15;7.18;;;12.10;68.10;;;;;;4962673;28;20518;-66
2022/11/23 09:18:00;;;;;;;19.08;9.88;;;11.50;70.20;;;;;;4963481;28;20030;-67
2022/11/23 09:20:26;;;;;;;15.25;8.68;;;11.00;72.10;;;;;;4959253;28;20074;-66
2022/11/23 09:22:53;;;;;;;16.48;8.82;;;10.50;73.70;;;;;;4961354;28;20035;-66
2022/11/23 09:25:20;;;;;;;17.15;8.15;;;10.20;75.80;;;;;;4962359;28;20039;-66
2022/11/23 09:27:46;;;;;;;14.25;8.48;;;9.80;76.40;;;;;;4964533;28;20834;-67
2022/11/23 09:30:13;;;;;;;13.55;7.43;;;9.50;78.00;;;;;;4960993;28;20035;-66
2022/11/23 09:32:39;;;;;;;14.68;7.82;;;9.20;79.60;;;;;;4966941;28;20073;-66
2022/11/23 09:35:05;;;;;;;12.80;7.13;;;9.00;80.60;;;;;;4964508;28;20117;-66
2022/11/23 09:37:31;;;;;;;13.93;8.13;;;8.80;81.70;;;;;;4964426;28;20035;-65
2022/11/23 09:39:57;;;;;;;13.32;7.22;;;8.60;82.90;;;;;;4963896;28;20035;-65
2022/11/23 09:42:51;;;;;;;14.25;8.18;;;8.40;83.50;;;;;;4964835;28;20038;-66
2022/11/23 09:45:23;;;;;;;11.43;6.90;;;8.20;84.80;;;;;;4962354;28;20038;-66
2022/11/23 09:48:07;;;;;;;17.88;7.68;;;8.10;85.10;;;;;;4964726;28;20063;-66
2022/11/23 09:50:53;;;;;;;14.30;7.50;;;7.90;86.60;;;;;;4962445;28;20031;-66
2022/11/23 09:53:21;;;;;;;14.27;7.68;;;7.70;88.00;;;;;;4963600;28;20360;-66
2022/11/23 09:55:50;;;;;;;12.45;7.55;;;7.70;89.20;;;;;;4963785;28;20441;-66
2022/11/23 09:58:19;;;;;;;19.90;8.10;;;7.70;89.10;;;;;;4963937;28;20085;-66
2022/11/23 10:01:05;;;;;;;15.93;8.35;;;7.70;89.30;;;;;;4963760;28;20145;-65
2022/11/23 10:03:36;;;;;;;14.30;7.07;;;7.60;89.80;;;;;;4969331;28;20042;-66
2022/11/23 10:06:24;;;;;;;13.07;6.82;;;7.60;90.00;;;;;;4964437;28;20053;-65
2022/11/23 10:08:56;;;;;;;12.77;6.85;;;7.70;90.20;;;;;;4966322;28;20065;-66
2022/11/23 10:11:47;;;;;;;12.48;6.60;;;7.70;90.00;;;;;;4961134;28;20037;-65
2022/11/23 10:14:28;;;;;;;13.88;6.88;;;7.80;90.00;;;;;;4963388;28;20070;-66
2022/11/23 10:17:09;;;;;;;13.57;6.53;;;7.80;90.00;;;;;;4961796;28;20070;-66
2022/11/23 10:19:49;;;;;;;14.48;6.60;;;7.80;90.20;;;;;;4963966;28;20125;-67
2022/11/23 10:22:29;;;;;;;12.32;6.85;;;7.80;90.10;;;;;;4962798;28;20142;-65
2022/11/23 10:24:55;;;;;;;17.27;6.72;;;7.80;90.10;;;;;;4960782;28;20039;-67
2022/11/23 10:27:23;;;;;;;11.77;6.60;;;7.80;90.10;;;;;;4965327;28;20046;-64
2022/11/23 10:29:51;;;;;;;12.20;6.82;;;7.80;90.10;;;;;;4960485;28;20043;-67
2022/11/23 10:32:55;;;;;;;13.95;6.90;;;7.90;90.20;;;;;;4958857;28;20066;-64
2022/11/23 10:35:39;;;;;;;14.25;6.53;;;8.00;90.10;;;;;;4877594;29;20041;-65
2022/11/23 10:38:17;;;;;;;11.73;6.07;;;8.10;89.90;;;;;;4965009;28;20847;-65
2022/11/23 10:41:04;;;;;;;13.43;6.40;;;8.20;89.80;;;;;;4963446;28;20074;-65
2022/11/23 10:43:37;;;;;;;13.82;6.82;;;8.30;89.20;;;;;;4962663;28;20130;-64
2022/11/23 10:46:36;;;;;;;11.90;5.72;;;8.30;89.30;;;;;;4977836;28;20121;-65
2022/11/23 10:49:22;;;;;;;13.55;6.68;;;8.30;88.90;;;;;;4961573;28;20110;-66
2022/11/23 10:52:02;;;;;;;15.15;6.50;;;8.40;89.40;;;;;;4961588;28;20117;-65
2022/11/23 10:54:51;;;;;;;12.25;7.00;;;8.40;89.80;;;;;;4964260;28;20027;-67
2022/11/23 10:57:26;;;;;;;9.93;5.97;;;8.60;89.50;;;;;;4962183;28;20130;-65
2022/11/23 11:00:14;;;;;;;10.63;5.90;;;8.60;88.70;;;;;;4963690;28;20112;-66
2022/11/23 11:02:50;;;;;;;11.35;5.70;;;8.60;89.20;;;;;;4962557;28;20039;-66
2022/11/23 11:05:30;;;;;;;12.50;5.73;;;8.70;88.50;;;;;;4962158;28;20553;-65
2022/11/23 11:07:59;;;;;;;12.35;6.22;;;8.80;88.40;;;;;;4963000;28;20054;-65
2022/11/23 11:10:38;;;;;;;9.57;6.25;;;8.80;88.00;;;;;;4962613;28;20161;-68
2022/11/23 11:13:30;;;;;;;12.65;7.18;;;8.90;87.70;;;;;;4960703;28;20034;-67
2022/11/23 11:16:02;;;;;;;13.85;7.55;;;8.80;88.20;;;;;;4961221;28;20458;-65
2022/11/23 11:18:34;;;;;;;11.70;6.95;;;8.90;88.60;;;;;;4962667;28;20050;-67
2022/11/23 11:21:06;;;;;;;16.05;9.38;;;9.00;88.30;;;;;;4976524;28;20342;-68
2022/11/23 11:23:37;;;;;;;21.17;12.18;;;9.00;87.60;;;;;;4962495;28;20038;-68
2022/11/23 11:26:08;;;;;;;13.10;6.97;;;9.10;87.50;;;;;;4963034;28;20399;-68
2022/11/23 11:28:46;;;;;;;11.35;6.10;;;9.20;86.80;;;;;;4959904;28;20121;-67
2022/11/23 11:31:33;;;;;;;11.85;5.72;;;9.20;86.40;;;;;;4963806;28;20050;-67
2022/11/23 11:34:07;;;;;;;13.93;6.35;;;9.20;87.20;;;;;;4961550;28;20038;-66
2022/11/23 11:36:44;;;;;;;12.30;6.05;;;9.20;87.50;;;;;;4963701;28;20045;-66
2022/11/23 11:39:34;;;;;;;11.23;6.43;;;9.20;87.60;;;;;;4961642;28;20915;-67
2022/11/23 11:42:05;;;;;;;12.10;5.95;;;9.10;88.00;;;;;;4961247;28;20150;-67
2022/11/23 11:44:35;;;;;;;10.57;5.95;;;9.10;87.80;;;;;;4971910;28;20046;-67
2022/11/23 11:47:11;;;;;;;8.68;5.50;;;9.20;87.40;;;;;;4961111;28;20038;-66
2022/11/23 11:49:41;;;;;;;;;;;9.20;87.60;;;;;;4963339;28;20701;-66
2022/11/23 11:52:33;;;;;;;12.00;5.97;;;9.20;88.10;;;;;;4963155;28;19968;-67
2022/11/23 11:55:09;;;;;;;9.65;5.40;;;9.10;87.70;;;;;;4952677;28;20487;-66
2022/11/23 11:57:48;;;;;;;12.68;5.70;;;9.10;88.20;;;;;;4962438;28;20043;-66
2022/11/23 12:00:18;;;;;;;9.60;5.50;;;9.10;88.70;;;;;;4959515;28;20093;-66
2022/11/23 12:03:24;;;;;;;8.30;5.20;;;9.10;88.60;;;;;;4962075;28;20034;-66
2022/11/23 12:05:53;;;;;;;10.65;5.80;;;9.10;88.50;;;;;;4962163;28;20399;-68
2022/11/23 12:09:05;;;;;;;10.60;5.45;;;9.20;88.70;;;;;;4964448;28;20128;-68
2022/11/23 12:11:31;;;;;;;9.70;5.15;;;9.10;89.10;;;;;;4902146;29;20554;-66
2022/11/23 12:14:03;;;;;;;9.43;5.18;;;9.10;89.40;;;;;;4901745;29;20032;-67
2022/11/23 12:16:43;;;;;;;12.98;5.43;;;9.20;88.70;;;;;;4935467;28;20435;-65
2022/11/23 12:19:19;;;;;;;10.85;5.47;;;9.20;89.20;;;;;;4958611;28;20150;-77
2022/11/23 12:21:51;;;;;;;;;;;9.30;88.40;;;;;;4962831;28;20078;-77
2022/11/23 12:24:45;;;;;;;14.65;5.32;;;9.30;88.70;;;;;;4962991;28;19910;-77
2022/11/23 12:27:28;;;;;;;12.90;5.35;;;9.40;88.60;;;;;;4959838;28;20413;-77
2022/11/23 12:30:35;;;;;;;13.07;5.65;;;9.30;88.90;;;;;;4960777;28;20034;-77
2022/11/23 12:33:20;;;;;;;;;;;9.40;88.70;;;;;;4958083;28;20042;-66
2022/11/23 12:36:00;;;;;;;11.85;6.05;;;9.50;88.50;;;;;;4961590;28;20465;-68
2022/11/23 12:38:36;;;;;;;10.20;5.97;;;9.50;88.90;;;;;;4959304;28;20058;-68
2022/11/23 12:41:20;;;;;;;10.25;5.82;;;9.50;88.90;;;;;;4958934;28;20030;-69
2022/11/23 12:44:15;;;;;;;11.55;5.30;;;9.60;88.70;;;;;;4958335;28;20813;-69
2022/11/23 12:47:14;;;;;;;13.35;5.50;;;9.60;88.50;;;;;;4959693;28;20037;-69
2022/11/23 12:49:59;;;;;;;9.77;6.70;;;9.60;88.40;;;;;;4960294;28;20042;-69
2022/11/23 12:52:30;;;;;;;14.05;6.82;;;9.60;88.90;;;;;;4958007;28;20045;-69
2022/11/23 12:55:37;;;;;;;17.52;9.13;;;9.60;88.50;;;;;;4960941;28;20442;-69
2022/11/23 12:58:26;;;;;;;12.07;6.93;;;9.50;88.70;;;;;;4957988;28;20458;-69
2022/11/23 13:01:18;;;;;;;9.73;5.60;;;9.50;89.00;;;;;;4955861;28;20081;-68
2022/11/23 13:04:01;;;;;;;9.25;5.03;;;9.40;89.20;;;;;;4956952;28;20039;-67